sensor_id;sensor_type;location;lat;lon;timestamp;pressure;altitude;pressure_sealevel;temperature;humidity
64908;BME280;51412;52.236;5.188;2022-10-04T00:01:03;102334.56;;;14.43;84.85
64908;BME280;51412;52.236;5.188;2022-10-04T00:03:33;102336.91;;;14.45;85.06
64908;BME280;51412;52.236;5.188;2022-10-04T00:06:03;102338.53;;;14.49;84.62
64908;BME280;51412;52.236;5.188;2022-10-04T00:08:35;102323.94;;;14.47;84.13
64908;BME280;51412;52.236;5.188;2022-10-04T00:11:16;102326.19;;;14.45;83.96
64908;BME280;51412;52.236;5.188;2022-10-04T00:13:47;102319.31;;;14.44;83.99
64908;BME280;51412;52.236;5.188;2022-10-04T00:16:20;102313.53;;;14.42;83.71
64908;BME280;51412;52.236;5.188;2022-10-04T00:19:01;102315.38;;;14.38;83.79
64908;BME280;51412;52.236;5.188;2022-10-04T00:24:35;102305.78;;;14.37;84.18
64908;BME280;51412;52.236;5.188;2022-10-04T00:27:18;102306.50;;;14.34;84.39
64908;BME280;51412;52.236;5.188;2022-10-04T00:29:50;102297.72;;;14.33;84.46
64908;BME280;51412;52.236;5.188;2022-10-04T00:32:45;102309.88;;;14.30;84.89
64908;BME280;51412;52.236;5.188;2022-10-04T00:35:47;102307.63;;;14.32;85.08
64908;BME280;51412;52.236;5.188;2022-10-04T00:38:15;102306.09;;;14.31;84.91
64908;BME280;51412;52.236;5.188;2022-10-04T00:40:45;102312.19;;;14.32;85.29
64908;BME280;51412;52.236;5.188;2022-10-04T00:43:19;102315.28;;;14.34;86.58
64908;BME280;51412;52.236;5.188;2022-10-04T00:45:51;102309.94;;;14.34;86.77
64908;BME280;51412;52.236;5.188;2022-10-04T00:48:38;102302.69;;;14.35;86.02
64908;BME280;51412;52.236;5.188;2022-10-04T00:51:17;102300.03;;;14.35;85.61
64908;BME280;51412;52.236;5.188;2022-10-04T00:53:51;102297.34;;;14.35;85.00
64908;BME280;51412;52.236;5.188;2022-10-04T00:56:25;102293.56;;;14.36;84.99
64908;BME280;51412;52.236;5.188;2022-10-04T00:59:12;102292.38;;;14.33;84.83
64908;BME280;51412;52.236;5.188;2022-10-04T01:01:43;102290.09;;;14.35;84.96
64908;BME280;51412;52.236;5.188;2022-10-04T01:07:15;102272.44;;;14.30;84.55
64908;BME280;51412;52.236;5.188;2022-10-04T01:09:47;102266.66;;;14.28;84.27
64908;BME280;51412;52.236;5.188;2022-10-04T01:12:32;102257.09;;;14.27;84.38
64908;BME280;51412;52.236;5.188;2022-10-04T01:15:06;102248.66;;;14.25;83.80
64908;BME280;51412;52.236;5.188;2022-10-04T01:17:34;102241.00;;;14.24;83.94
64908;BME280;51412;52.236;5.188;2022-10-04T01:20:28;102237.13;;;14.21;84.14
64908;BME280;51412;52.236;5.188;2022-10-04T01:22:49;102243.19;;;14.18;85.02
64908;BME280;51412;52.236;5.188;2022-10-04T01:25:41;102246.97;;;14.17;87.08
64908;BME280;51412;52.236;5.188;2022-10-04T01:28:08;102251.97;;;14.19;87.10
64908;BME280;51412;52.236;5.188;2022-10-04T01:30:37;102267.25;;;14.18;86.86
64908;BME280;51412;52.236;5.188;2022-10-04T01:33:04;102266.81;;;14.16;85.99
64908;BME280;51412;52.236;5.188;2022-10-04T01:35:32;102270.59;;;14.15;86.06
64908;BME280;51412;52.236;5.188;2022-10-04T01:38:02;102271.31;;;14.12;85.63
64908;BME280;51412;52.236;5.188;2022-10-04T01:40:31;102259.06;;;14.11;85.72
64908;BME280;51412;52.236;5.188;2022-10-04T01:43:01;102259.06;;;14.11;85.14
64908;BME280;51412;52.236;5.188;2022-10-04T01:45:33;102239.16;;;14.08;84.72
64908;BME280;51412;52.236;5.188;2022-10-04T01:48:04;102230.28;;;14.04;84.46
64908;BME280;51412;52.236;5.188;2022-10-04T01:50:33;102223.34;;;14.00;84.21
64908;BME280;51412;52.236;5.188;2022-10-04T01:53:09;102220.56;;;13.96;84.48
64908;BME280;51412;52.236;5.188;2022-10-04T01:55:40;102212.16;;;13.94;84.50
64908;BME280;51412;52.236;5.188;2022-10-04T01:58:13;102210.16;;;13.91;84.42
64908;BME280;51412;52.236;5.188;2022-10-04T02:00:47;102200.53;;;13.86;84.60
64908;BME280;51412;52.236;5.188;2022-10-04T02:03:18;102208.91;;;13.85;84.84
64908;BME280;51412;52.236;5.188;2022-10-04T02:05:50;102207.28;;;13.80;85.30
64908;BME280;51412;52.236;5.188;2022-10-04T02:08:25;102209.19;;;13.79;85.31
64908;BME280;51412;52.236;5.188;2022-10-04T02:10:53;102200.41;;;13.79;85.24
64908;BME280;51412;52.236;5.188;2022-10-04T02:13:23;102188.16;;;13.78;85.45
64908;BME280;51412;52.236;5.188;2022-10-04T02:15:52;102180.16;;;13.78;85.29
64908;BME280;51412;52.236;5.188;2022-10-04T02:18:20;102178.59;;;13.77;85.52
64908;BME280;51412;52.236;5.188;2022-10-04T02:20:49;102164.88;;;13.78;85.63
64908;BME280;51412;52.236;5.188;2022-10-04T02:23:18;102158.41;;;13.79;85.39
64908;BME280;51412;52.236;5.188;2022-10-04T02:25:47;102161.44;;;13.78;84.91
64908;BME280;51412;52.236;5.188;2022-10-04T02:28:14;102144.94;;;13.72;85.19
64908;BME280;51412;52.236;5.188;2022-10-04T02:30:45;102149.91;;;13.74;84.98
64908;BME280;51412;52.236;5.188;2022-10-04T02:33:33;102139.59;;;13.72;85.95
64908;BME280;51412;52.236;5.188;2022-10-04T02:36:03;102133.81;;;13.70;86.03
64908;BME280;51412;52.236;5.188;2022-10-04T02:38:35;102134.16;;;13.69;85.90
64908;BME280;51412;52.236;5.188;2022-10-04T02:41:10;102136.81;;;13.69;86.74
64908;BME280;51412;52.236;5.188;2022-10-04T02:43:38;102139.19;;;13.54;86.37
64908;BME280;51412;52.236;5.188;2022-10-04T02:46:12;102137.72;;;13.57;85.67
64908;BME280;51412;52.236;5.188;2022-10-04T02:48:46;102143.88;;;13.57;86.55
64908;BME280;51412;52.236;5.188;2022-10-04T02:51:18;102131.63;;;13.56;87.64
64908;BME280;51412;52.236;5.188;2022-10-04T02:53:53;102118.19;;;13.53;87.50
64908;BME280;51412;52.236;5.188;2022-10-04T02:56:24;102117.34;;;13.48;86.82
64908;BME280;51412;52.236;5.188;2022-10-04T02:58:51;102112.38;;;13.47;87.18
64908;BME280;51412;52.236;5.188;2022-10-04T03:01:24;102114.94;;;13.43;86.19
64908;BME280;51412;52.236;5.188;2022-10-04T03:03:52;102118.69;;;13.39;86.02
64908;BME280;51412;52.236;5.188;2022-10-04T03:06:22;102117.56;;;13.40;86.51
64908;BME280;51412;52.236;5.188;2022-10-04T03:08:55;102114.06;;;13.36;86.66
64908;BME280;51412;52.236;5.188;2022-10-04T03:11:28;102101.66;;;13.27;85.80
64908;BME280;51412;52.236;5.188;2022-10-04T03:13:57;102102.41;;;13.28;87.22
64908;BME280;51412;52.236;5.188;2022-10-04T03:16:25;102102.06;;;13.29;87.30
64908;BME280;51412;52.236;5.188;2022-10-04T03:18:55;102090.19;;;13.27;86.65
64908;BME280;51412;52.236;5.188;2022-10-04T03:21:23;102093.19;;;13.25;86.09
64908;BME280;51412;52.236;5.188;2022-10-04T03:23:51;102092.34;;;13.21;85.38
64908;BME280;51412;52.236;5.188;2022-10-04T03:26:26;102088.91;;;13.21;86.79
64908;BME280;51412;52.236;5.188;2022-10-04T03:28:54;102093.47;;;13.20;87.81
64908;BME280;51412;52.236;5.188;2022-10-04T03:31:22;102090.75;;;13.17;87.11
64908;BME280;51412;52.236;5.188;2022-10-04T03:33:52;102101.34;;;13.13;86.41
64908;BME280;51412;52.236;5.188;2022-10-04T03:36:20;102086.69;;;13.07;86.40
64908;BME280;51412;52.236;5.188;2022-10-04T03:38:52;102097.38;;;13.07;86.55
64908;BME280;51412;52.236;5.188;2022-10-04T03:41:19;102089.72;;;13.05;85.95
64908;BME280;51412;52.236;5.188;2022-10-04T03:43:49;102094.66;;;13.03;85.58
64908;BME280;51412;52.236;5.188;2022-10-04T03:46:17;102085.94;;;13.06;87.66
64908;BME280;51412;52.236;5.188;2022-10-04T03:48:49;102083.63;;;13.05;88.33
64908;BME280;51412;52.236;5.188;2022-10-04T03:51:19;102088.13;;;13.01;87.37
64908;BME280;51412;52.236;5.188;2022-10-04T03:53:48;102084.59;;;12.96;86.70
64908;BME280;51412;52.236;5.188;2022-10-04T03:56:18;102086.81;;;12.94;86.24
64908;BME280;51412;52.236;5.188;2022-10-04T03:58:47;102088.63;;;12.90;86.02
64908;BME280;51412;52.236;5.188;2022-10-04T04:01:26;102084.00;;;12.87;86.06
64908;BME280;51412;52.236;5.188;2022-10-04T04:04:02;102083.06;;;12.79;86.20
64908;BME280;51412;52.236;5.188;2022-10-04T04:06:36;102081.84;;;12.77;86.05
64908;BME280;51412;52.236;5.188;2022-10-04T04:09:08;102077.22;;;12.74;85.68
64908;BME280;51412;52.236;5.188;2022-10-04T04:11:42;102068.78;;;12.72;85.58
64908;BME280;51412;52.236;5.188;2022-10-04T04:14:13;102065.34;;;12.71;86.17
64908;BME280;51412;52.236;5.188;2022-10-04T04:16:41;102072.25;;;12.72;86.52
64908;BME280;51412;52.236;5.188;2022-10-04T04:19:11;102073.25;;;12.68;86.38
64908;BME280;51412;52.236;5.188;2022-10-04T04:21:39;102070.28;;;12.69;86.91
64908;BME280;51412;52.236;5.188;2022-10-04T04:24:17;102064.50;;;12.67;87.96
64908;BME280;51412;52.236;5.188;2022-10-04T04:26:51;102077.84;;;12.67;87.93
64908;BME280;51412;52.236;5.188;2022-10-04T04:29:23;102071.28;;;12.64;87.48
64908;BME280;51412;52.236;5.188;2022-10-04T04:31:53;102070.53;;;12.64;87.38
64908;BME280;51412;52.236;5.188;2022-10-04T04:34:21;102066.66;;;12.61;88.05
64908;BME280;51412;52.236;5.188;2022-10-04T04:36:49;102069.75;;;12.63;87.45
64908;BME280;51412;52.236;5.188;2022-10-04T04:39:19;102070.09;;;12.62;87.03
64908;BME280;51412;52.236;5.188;2022-10-04T04:42:12;102056.75;;;12.62;87.82
64908;BME280;51412;52.236;5.188;2022-10-04T04:44:47;102064.69;;;12.58;87.78
64908;BME280;51412;52.236;5.188;2022-10-04T04:47:24;102052.81;;;12.56;87.09
64908;BME280;51412;52.236;5.188;2022-10-04T04:49:52;102057.38;;;12.55;86.50
64908;BME280;51412;52.236;5.188;2022-10-04T04:52:22;102058.06;;;12.52;86.87
64908;BME280;51412;52.236;5.188;2022-10-04T04:54:51;102052.81;;;12.56;86.77
64908;BME280;51412;52.236;5.188;2022-10-04T04:57:18;102055.13;;;12.57;86.85
64908;BME280;51412;52.236;5.188;2022-10-04T04:59:49;102047.50;;;12.56;86.96
64908;BME280;51412;52.236;5.188;2022-10-04T05:02:26;102054.94;;;12.50;86.30
64908;BME280;51412;52.236;5.188;2022-10-04T05:05:09;102054.09;;;12.46;85.80
64908;BME280;51412;52.236;5.188;2022-10-04T05:07:40;102052.56;;;12.45;86.10
64908;BME280;51412;52.236;5.188;2022-10-04T05:10:19;102054.38;;;12.41;85.18
64908;BME280;51412;52.236;5.188;2022-10-04T05:12:46;102056.25;;;12.40;85.54
64908;BME280;51412;52.236;5.188;2022-10-04T05:15:14;102058.50;;;12.38;86.58
64908;BME280;51412;52.236;5.188;2022-10-04T05:17:41;102053.84;;;12.35;86.56
64908;BME280;51412;52.236;5.188;2022-10-04T05:20:11;102049.31;;;12.36;86.88
64908;BME280;51412;52.236;5.188;2022-10-04T05:22:40;102050.75;;;12.33;86.72
64908;BME280;51412;52.236;5.188;2022-10-04T05:25:14;102057.31;;;12.36;87.23
64908;BME280;51412;52.236;5.188;2022-10-04T05:27:43;102061.53;;;12.37;87.42
64908;BME280;51412;52.236;5.188;2022-10-04T05:30:34;102061.44;;;12.33;86.91
64908;BME280;51412;52.236;5.188;2022-10-04T05:33:05;102064.50;;;12.35;87.82
64908;BME280;51412;52.236;5.188;2022-10-04T05:35:41;102065.28;;;12.36;88.05
64908;BME280;51412;52.236;5.188;2022-10-04T05:38:19;102056.19;;;12.37;87.12
64908;BME280;51412;52.236;5.188;2022-10-04T05:40:56;102053.84;;;12.35;86.66
64908;BME280;51412;52.236;5.188;2022-10-04T05:43:31;102048.34;;;12.28;86.79
64908;BME280;51412;52.236;5.188;2022-10-04T05:46:18;102061.06;;;12.35;87.30
64908;BME280;51412;52.236;5.188;2022-10-04T05:48:52;102068.31;;;12.34;86.35
64908;BME280;51412;52.236;5.188;2022-10-04T05:51:22;102069.78;;;12.32;87.27
64908;BME280;51412;52.236;5.188;2022-10-04T05:53:49;102061.44;;;12.33;86.75
64908;BME280;51412;52.236;5.188;2022-10-04T05:56:49;102066.31;;;12.31;88.21
64908;BME280;51412;52.236;5.188;2022-10-04T05:59:35;102067.44;;;12.30;86.92
64908;BME280;51412;52.236;5.188;2022-10-04T06:02:17;102057.91;;;12.29;86.17
64908;BME280;51412;52.236;5.188;2022-10-04T06:05:00;102065.91;;;12.29;86.67
64908;BME280;51412;52.236;5.188;2022-10-04T06:07:36;102063.59;;;12.27;86.21
64908;BME280;51412;52.236;5.188;2022-10-04T06:10:28;102057.38;;;12.23;86.54
64908;BME280;51412;52.236;5.188;2022-10-04T06:13:09;102060.06;;;12.23;86.15
64908;BME280;51412;52.236;5.188;2022-10-04T06:16:00;102050.50;;;12.22;85.89
64908;BME280;51412;52.236;5.188;2022-10-04T06:18:56;102057.63;;;12.18;85.53
64908;BME280;51412;52.236;5.188;2022-10-04T06:21:27;102050.66;;;12.13;85.75
64908;BME280;51412;52.236;5.188;2022-10-04T06:23:58;102043.19;;;12.03;86.03
64908;BME280;51412;52.236;5.188;2022-10-04T06:26:33;102036.13;;;11.95;86.41
64908;BME280;51412;52.236;5.188;2022-10-04T06:29:03;102054.31;;;11.93;86.69
64908;BME280;51412;52.236;5.188;2022-10-04T06:32:05;102053.53;;;11.92;87.11
64908;BME280;51412;52.236;5.188;2022-10-04T06:34:53;102039.22;;;11.97;87.24
64908;BME280;51412;52.236;5.188;2022-10-04T06:37:38;102041.88;;;11.97;87.11
64908;BME280;51412;52.236;5.188;2022-10-04T06:40:36;102031.13;;;11.93;87.49
64908;BME280;51412;52.236;5.188;2022-10-04T06:43:21;102024.03;;;11.98;87.14
64908;BME280;51412;52.236;5.188;2022-10-04T06:46:05;102019.97;;;12.04;87.48
64908;BME280;51412;52.236;5.188;2022-10-04T06:51:36;102012.84;;;12.08;87.51
64908;BME280;51412;52.236;5.188;2022-10-04T06:54:16;102013.69;;;12.12;87.65
64908;BME280;51412;52.236;5.188;2022-10-04T06:57:07;102015.00;;;12.18;88.68
64908;BME280;51412;52.236;5.188;2022-10-04T06:59:56;102023.16;;;12.25;88.81
64908;BME280;51412;52.236;5.188;2022-10-04T07:02:30;102019.13;;;12.32;88.15
64908;BME280;51412;52.236;5.188;2022-10-04T07:05:03;102021.53;;;12.37;88.20
64908;BME280;51412;52.236;5.188;2022-10-04T07:07:34;102023.25;;;12.45;87.81
64908;BME280;51412;52.236;5.188;2022-10-04T07:10:28;102013.78;;;12.48;87.95
64908;BME280;51412;52.236;5.188;2022-10-04T07:13:09;102020.38;;;12.54;87.93
64908;BME280;51412;52.236;5.188;2022-10-04T07:15:45;102022.78;;;12.59;87.78
64908;BME280;51412;52.236;5.188;2022-10-04T07:18:15;102016.41;;;12.63;88.01
64908;BME280;51412;52.236;5.188;2022-10-04T07:20:47;102017.69;;;12.70;87.45
64908;BME280;51412;52.236;5.188;2022-10-04T07:23:24;102012.75;;;12.72;87.32
64908;BME280;51412;52.236;5.188;2022-10-04T07:25:55;102024.38;;;12.79;87.59
64908;BME280;51412;52.236;5.188;2022-10-04T07:28:27;102027.53;;;12.85;87.56
64908;BME280;51412;52.236;5.188;2022-10-04T07:31:20;102026.66;;;12.97;87.33
64908;BME280;51412;52.236;5.188;2022-10-04T07:33:52;102033.28;;;13.03;86.73
64908;BME280;51412;52.236;5.188;2022-10-04T07:36:24;102028.63;;;13.20;86.93
64908;BME280;51412;52.236;5.188;2022-10-04T07:38:55;102019.16;;;13.42;86.41
64908;BME280;51412;52.236;5.188;2022-10-04T07:41:27;102017.03;;;13.71;85.45
64908;BME280;51412;52.236;5.188;2022-10-04T07:43:58;102023.41;;;13.86;84.04
64908;BME280;51412;52.236;5.188;2022-10-04T07:46:37;102041.56;;;14.00;83.58
64908;BME280;51412;52.236;5.188;2022-10-04T07:49:12;102039.66;;;14.00;83.11
64908;BME280;51412;52.236;5.188;2022-10-04T07:51:54;102041.69;;;14.07;82.81
64908;BME280;51412;52.236;5.188;2022-10-04T07:54:31;102026.06;;;14.09;82.44
64908;BME280;51412;52.236;5.188;2022-10-04T07:57:10;102017.03;;;14.17;81.89
64908;BME280;51412;52.236;5.188;2022-10-04T07:59:43;102023.75;;;14.30;81.90
64908;BME280;51412;52.236;5.188;2022-10-04T08:02:23;102032.69;;;14.42;81.02
64908;BME280;51412;52.236;5.188;2022-10-04T08:05:04;102028.47;;;14.64;81.02
64908;BME280;51412;52.236;5.188;2022-10-04T08:07:46;102029.91;;;14.88;79.98
64908;BME280;51412;52.236;5.188;2022-10-04T08:10:24;102028.00;;;15.19;78.27
64908;BME280;51412;52.236;5.188;2022-10-04T08:13:03;102031.63;;;15.34;77.94
64908;BME280;51412;52.236;5.188;2022-10-04T08:15:35;102027.19;;;15.49;76.99
64908;BME280;51412;52.236;5.188;2022-10-04T08:18:16;102019.75;;;15.73;76.48
64908;BME280;51412;52.236;5.188;2022-10-04T08:20:51;102020.44;;;16.04;75.66
64908;BME280;51412;52.236;5.188;2022-10-04T08:23:33;102014.91;;;16.30;74.09
64908;BME280;51412;52.236;5.188;2022-10-04T08:26:15;102021.97;;;16.57;73.16
64908;BME280;51412;52.236;5.188;2022-10-04T08:28:53;102028.22;;;16.82;71.13
64908;BME280;51412;52.236;5.188;2022-10-04T08:31:54;102015.69;;;17.01;70.07
64908;BME280;51412;52.236;5.188;2022-10-04T08:34:32;102012.25;;;17.11;70.20
64908;BME280;51412;52.236;5.188;2022-10-04T08:37:16;102011.53;;;17.22;69.00
64908;BME280;51412;52.236;5.188;2022-10-04T08:40:07;102013.84;;;17.27;67.71
64908;BME280;51412;52.236;5.188;2022-10-04T08:46:17;102015.38;;;17.24;67.50
64908;BME280;51412;52.236;5.188;2022-10-04T08:55:36;102019.28;;;17.59;66.24
64908;BME280;51412;52.236;5.188;2022-10-04T08:58:13;102014.66;;;17.67;65.90
64908;BME280;51412;52.236;5.188;2022-10-04T09:00:57;102017.75;;;17.76;65.61
64908;BME280;51412;52.236;5.188;2022-10-04T09:04:03;102012.78;;;17.82;64.91
64908;BME280;51412;52.236;5.188;2022-10-04T09:06:42;102025.06;;;17.76;64.32
64908;BME280;51412;52.236;5.188;2022-10-04T09:09:37;102021.59;;;17.79;64.33
64908;BME280;51412;52.236;5.188;2022-10-04T09:12:30;102027.03;;;17.97;64.23
64908;BME280;51412;52.236;5.188;2022-10-04T09:15:19;102025.09;;;17.97;64.21
64908;BME280;51412;52.236;5.188;2022-10-04T09:18:00;102017.81;;;18.01;63.36
64908;BME280;51412;52.236;5.188;2022-10-04T09:20:41;102021.66;;;17.97;63.69
64908;BME280;51412;52.236;5.188;2022-10-04T09:23:36;102015.88;;;18.02;63.28
64908;BME280;51412;52.236;5.188;2022-10-04T09:26:19;102014.72;;;18.07;64.02
64908;BME280;51412;52.236;5.188;2022-10-04T09:29:15;102013.56;;;18.15;62.97
64908;BME280;51412;52.236;5.188;2022-10-04T09:32:12;102015.50;;;18.04;63.38
64908;BME280;51412;52.236;5.188;2022-10-04T09:34:54;102010.91;;;18.08;63.51
64908;BME280;51412;52.236;5.188;2022-10-04T09:37:31;102017.81;;;18.16;63.43
64908;BME280;51412;52.236;5.188;2022-10-04T09:40:30;102014.31;;;18.33;64.40
64908;BME280;51412;52.236;5.188;2022-10-04T09:43:25;102005.81;;;18.49;62.65
64908;BME280;51412;52.236;5.188;2022-10-04T09:46:04;101999.25;;;18.61;63.11
64908;BME280;51412;52.236;5.188;2022-10-04T09:48:40;101994.25;;;18.63;62.90
64908;BME280;51412;52.236;5.188;2022-10-04T09:51:18;101987.63;;;18.79;62.99
64908;BME280;51412;52.236;5.188;2022-10-04T09:54:10;101984.88;;;18.97;62.33
64908;BME280;51412;52.236;5.188;2022-10-04T09:56:56;101985.22;;;19.10;61.15
64908;BME280;51412;52.236;5.188;2022-10-04T09:59:46;101996.38;;;19.08;61.15
64908;BME280;51412;52.236;5.188;2022-10-04T10:05:24;101995.94;;;19.17;61.08
64908;BME280;51412;52.236;5.188;2022-10-04T10:07:59;101996.34;;;19.15;60.82
64908;BME280;51412;52.236;5.188;2022-10-04T10:10:37;101996.41;;;19.05;61.01
64908;BME280;51412;52.236;5.188;2022-10-04T10:13:39;102001.44;;;19.02;60.93
64908;BME280;51412;52.236;5.188;2022-10-04T10:16:25;102002.53;;;19.12;62.03
64908;BME280;51412;52.236;5.188;2022-10-04T10:19:09;102013.94;;;19.34;60.89
64908;BME280;51412;52.236;5.188;2022-10-04T10:21:57;102007.84;;;19.27;60.34
64908;BME280;51412;52.236;5.188;2022-10-04T10:24:43;102005.97;;;19.20;60.34
64908;BME280;51412;52.236;5.188;2022-10-04T10:27:39;101992.53;;;19.09;60.52
64908;BME280;51412;52.236;5.188;2022-10-04T10:30:20;101992.91;;;19.08;60.60
64908;BME280;51412;52.236;5.188;2022-10-04T10:33:07;101987.53;;;19.08;61.19
64908;BME280;51412;52.236;5.188;2022-10-04T10:38:46;101989.19;;;18.80;60.29
64908;BME280;51412;52.236;5.188;2022-10-04T10:41:38;101977.69;;;18.58;59.23
64908;BME280;51412;52.236;5.188;2022-10-04T10:44:20;101983.53;;;18.34;60.77
64908;BME280;51412;52.236;5.188;2022-10-04T10:46:58;101978.56;;;18.29;61.48
64908;BME280;51412;52.236;5.188;2022-10-04T10:49:53;101975.47;;;18.34;62.52
64908;BME280;51412;52.236;5.188;2022-10-04T10:55:28;101967.75;;;18.51;61.33
64908;BME280;51412;52.236;5.188;2022-10-04T10:58:36;101973.13;;;18.51;60.98
64908;BME280;51412;52.236;5.188;2022-10-04T11:04:42;101960.78;;;18.57;60.25
64908;BME280;51412;52.236;5.188;2022-10-04T11:07:27;101971.59;;;18.46;60.43
64908;BME280;51412;52.236;5.188;2022-10-04T11:16:33;101963.13;;;18.55;62.00
64908;BME280;51412;52.236;5.188;2022-10-04T11:22:35;101968.47;;;18.62;60.75
64908;BME280;51412;52.236;5.188;2022-10-04T11:25:31;101968.13;;;18.57;60.56
64908;BME280;51412;52.236;5.188;2022-10-04T11:28:10;101958.09;;;18.57;60.82
64908;BME280;51412;52.236;5.188;2022-10-04T11:31:05;101961.53;;;18.58;60.79
64908;BME280;51412;52.236;5.188;2022-10-04T11:33:52;101957.34;;;18.57;60.91
64908;BME280;51412;52.236;5.188;2022-10-04T11:36:30;101949.66;;;18.55;60.59
64908;BME280;51412;52.236;5.188;2022-10-04T11:39:12;101949.28;;;18.49;61.17
64908;BME280;51412;52.236;5.188;2022-10-04T11:41:47;101938.16;;;18.47;60.72
64908;BME280;51412;52.236;5.188;2022-10-04T11:44:37;101946.97;;;18.48;60.66
64908;BME280;51412;52.236;5.188;2022-10-04T11:47:20;101958.13;;;18.46;59.78
64908;BME280;51412;52.236;5.188;2022-10-04T11:50:02;101949.31;;;18.42;59.59
64908;BME280;51412;52.236;5.188;2022-10-04T11:52:58;101952.03;;;18.31;60.27
64908;BME280;51412;52.236;5.188;2022-10-04T11:55:48;101947.75;;;18.41;60.67
64908;BME280;51412;52.236;5.188;2022-10-04T11:58:29;101941.59;;;18.51;60.19
64908;BME280;51412;52.236;5.188;2022-10-04T12:01:30;101932.75;;;18.47;60.34
64908;BME280;51412;52.236;5.188;2022-10-04T12:04:36;101938.13;;;18.51;60.47
64908;BME280;51412;52.236;5.188;2022-10-04T12:07:28;101940.09;;;18.47;59.67
64908;BME280;51412;52.236;5.188;2022-10-04T12:10:09;101925.09;;;18.42;59.54
64908;BME280;51412;52.236;5.188;2022-10-04T12:16:03;101921.63;;;18.42;59.83
64908;BME280;51412;52.236;5.188;2022-10-04T12:18:50;101913.91;;;18.51;59.92
64908;BME280;51412;52.236;5.188;2022-10-04T12:21:37;101916.13;;;18.67;59.99
64908;BME280;51412;52.236;5.188;2022-10-04T12:24:23;101911.06;;;18.80;59.54
64908;BME280;51412;52.236;5.188;2022-10-04T12:27:25;101907.13;;;19.02;59.39
64908;BME280;51412;52.236;5.188;2022-10-04T12:32:51;101902.75;;;19.23;56.60
64908;BME280;51412;52.236;5.188;2022-10-04T12:35:27;101905.03;;;19.28;56.12
64908;BME280;51412;52.236;5.188;2022-10-04T12:38:17;101891.09;;;19.33;56.15
64908;BME280;51412;52.236;5.188;2022-10-04T12:40:54;101888.41;;;19.33;56.18
64908;BME280;51412;52.236;5.188;2022-10-04T12:43:33;101887.16;;;19.45;56.68
64908;BME280;51412;52.236;5.188;2022-10-04T12:46:11;101885.16;;;19.57;56.44
64908;BME280;51412;52.236;5.188;2022-10-04T12:48:48;101876.56;;;19.69;56.35
64908;BME280;51412;52.236;5.188;2022-10-04T12:51:29;101879.94;;;19.77;54.62
64908;BME280;51412;52.236;5.188;2022-10-04T12:54:11;101870.75;;;19.74;55.03
64908;BME280;51412;52.236;5.188;2022-10-04T12:56:46;101873.91;;;19.62;55.29
64908;BME280;51412;52.236;5.188;2022-10-04T12:59:37;101874.31;;;19.60;55.67
64908;BME280;51412;52.236;5.188;2022-10-04T13:02:19;101866.72;;;19.48;55.92
64908;BME280;51412;52.236;5.188;2022-10-04T13:04:52;101867.47;;;19.52;55.70
64908;BME280;51412;52.236;5.188;2022-10-04T13:07:35;101855.13;;;19.55;54.74
64908;BME280;51412;52.236;5.188;2022-10-04T13:13:30;101851.44;;;19.38;55.94
64908;BME280;51412;52.236;5.188;2022-10-04T13:16:07;101859.47;;;19.41;56.58
64908;BME280;51412;52.236;5.188;2022-10-04T13:18:42;101864.84;;;19.45;56.80
64908;BME280;51412;52.236;5.188;2022-10-04T13:21:15;101849.38;;;19.52;56.77
64908;BME280;51412;52.236;5.188;2022-10-04T13:23:53;101843.53;;;19.58;56.70
64908;BME280;51412;52.236;5.188;2022-10-04T13:26:35;101836.16;;;19.62;56.77
64908;BME280;51412;52.236;5.188;2022-10-04T13:29:13;101823.03;;;19.67;56.74
64908;BME280;51412;52.236;5.188;2022-10-04T13:31:47;101818.41;;;19.68;56.53
64908;BME280;51412;52.236;5.188;2022-10-04T13:34:24;101806.84;;;19.67;56.75
64908;BME280;51412;52.236;5.188;2022-10-04T13:37:05;101807.19;;;19.69;56.84
64908;BME280;51412;52.236;5.188;2022-10-04T13:39:53;101803.75;;;19.69;57.00
64908;BME280;51412;52.236;5.188;2022-10-04T13:42:44;101791.41;;;19.72;56.40
64908;BME280;51412;52.236;5.188;2022-10-04T13:45:27;101782.97;;;19.66;56.98
64908;BME280;51412;52.236;5.188;2022-10-04T13:48:37;101788.75;;;19.64;57.44
64908;BME280;51412;52.236;5.188;2022-10-04T13:51:22;101795.25;;;19.71;57.23
64908;BME280;51412;52.236;5.188;2022-10-04T13:54:01;101796.06;;;19.67;57.64
64908;BME280;51412;52.236;5.188;2022-10-04T13:56:59;101804.09;;;19.71;57.94
64908;BME280;51412;52.236;5.188;2022-10-04T13:59:36;101794.81;;;19.76;57.63
64908;BME280;51412;52.236;5.188;2022-10-04T14:02:28;101791.03;;;19.69;56.98
64908;BME280;51412;52.236;5.188;2022-10-04T14:05:20;101786.16;;;19.57;56.63
64908;BME280;51412;52.236;5.188;2022-10-04T14:08:08;101777.78;;;19.44;56.98
64908;BME280;51412;52.236;5.188;2022-10-04T14:13:46;101777.13;;;19.37;57.75
64908;BME280;51412;52.236;5.188;2022-10-04T14:16:34;101775.66;;;19.28;58.49
64908;BME280;51412;52.236;5.188;2022-10-04T14:19:34;101772.91;;;19.32;58.76
64908;BME280;51412;52.236;5.188;2022-10-04T14:22:25;101770.94;;;19.36;58.92
64908;BME280;51412;52.236;5.188;2022-10-04T14:28:15;101788.63;;;19.41;59.95
64908;BME280;51412;52.236;5.188;2022-10-04T14:31:00;101792.38;;;19.50;59.00
64908;BME280;51412;52.236;5.188;2022-10-04T14:33:45;101803.19;;;19.47;59.70
64908;BME280;51412;52.236;5.188;2022-10-04T14:36:41;101793.91;;;19.51;59.74
64908;BME280;51412;52.236;5.188;2022-10-04T14:45:16;101793.22;;;19.44;58.80
64908;BME280;51412;52.236;5.188;2022-10-04T14:48:27;101801.78;;;19.35;59.41
64908;BME280;51412;52.236;5.188;2022-10-04T14:51:21;101792.25;;;19.23;59.71
64908;BME280;51412;52.236;5.188;2022-10-04T14:53:58;101803.47;;;19.18;59.74